East Hanover, Pennsylvania
Current Conditions -  °F | °C
As of 7:58 AM on Saturday 20 Dec 2014 (Local Time) from KMUI Reporting Station
Overcast Overcast  
Wind Chill: 23°   Ceiling: 2800
Heat Index: 29°   Visibility: 10mi
Dew Point: 20°   Wind: 5mph
Humidity: 69%   Direction: 260°W
Pressure: 30.29"   Gusts: NA
Location:  40.3819°N, 76.5718°W
Report Text: KMUI 201258Z AUTO 26004KT 10SM OVC028 M02/M07 A3029 RMK AO2 OVC V BKN PRESRR SLP266 T10191069
Loading
Personal Weather Stations






























Interactive Weather Map New forecast layout! Learn more

10-Day Weather Forecast

Advertisements
Track Severe Weather on mobile